createdAt,value
2023-03-12T00:00:12.024Z,0.50
2023-03-12T00:02:38.584Z,0.50
2023-03-12T00:05:05.198Z,1.52
2023-03-12T00:07:31.664Z,0.57
2023-03-12T00:09:58.055Z,0.70
2023-03-12T00:12:24.517Z,0.40
2023-03-12T00:14:50.992Z,0.32
2023-03-12T00:17:17.524Z,0.52
2023-03-12T00:19:50.930Z,0.73
2023-03-12T00:22:17.499Z,0.55
2023-03-12T00:24:43.923Z,0.70
2023-03-12T00:27:11.532Z,0.40
2023-03-12T00:29:38.020Z,1.00
2023-03-12T00:32:04.514Z,0.60
2023-03-12T00:34:31.007Z,0.50
2023-03-12T00:36:57.420Z,0.57
2023-03-12T00:39:24.031Z,0.52
2023-03-12T00:41:50.573Z,0.45
2023-03-12T00:44:17.056Z,0.40
2023-03-12T00:46:43.570Z,0.50
2023-03-12T00:49:11.683Z,0.50
2023-03-12T00:51:38.446Z,0.50
2023-03-12T00:54:06.533Z,0.60
2023-03-12T00:56:33.251Z,0.60
2023-03-12T00:58:59.914Z,0.80
2023-03-12T01:01:27.666Z,0.50
2023-03-12T01:03:54.800Z,0.40
2023-03-12T01:06:21.380Z,0.50
2023-03-12T01:08:47.820Z,0.50
2023-03-12T01:11:15.342Z,0.68
2023-03-12T01:13:41.800Z,0.50
2023-03-12T01:16:08.355Z,0.43
2023-03-12T01:18:34.904Z,0.50
2023-03-12T01:21:01.952Z,0.40
2023-03-12T01:23:28.542Z,0.60
2023-03-12T01:25:58.405Z,0.50
2023-03-12T01:28:25.519Z,0.50
2023-03-12T01:30:52.143Z,0.80
2023-03-12T01:33:18.726Z,0.60
2023-03-12T01:35:45.352Z,0.90
2023-03-12T01:38:13.026Z,0.65
2023-03-12T01:40:39.617Z,0.50
2023-03-12T01:43:22.113Z,0.50
2023-03-12T01:46:03.597Z,0.30
2023-03-12T01:48:34.464Z,0.50
2023-03-12T01:51:01.879Z,0.50
2023-03-12T01:53:28.448Z,0.50
2023-03-12T01:55:54.944Z,0.50
2023-03-12T01:58:22.335Z,0.43
2023-03-12T02:00:48.837Z,0.30
2023-03-12T02:03:15.761Z,1.15
2023-03-12T02:05:51.543Z,0.32
2023-03-12T02:08:19.611Z,0.40
2023-03-12T02:10:46.388Z,0.60
2023-03-12T02:13:13.037Z,0.40
2023-03-12T02:15:39.676Z,0.60
2023-03-12T02:18:07.250Z,0.70
2023-03-12T02:20:33.684Z,0.60
2023-03-12T02:23:05.967Z,0.45
2023-03-12T02:25:35.506Z,0.30
2023-03-12T02:28:04.045Z,0.50
2023-03-12T02:30:31.268Z,0.20
2023-03-12T02:33:06.047Z,0.40
2023-03-12T02:35:32.520Z,0.50
2023-03-12T02:37:59.190Z,0.47
2023-03-12T02:40:25.530Z,0.70
2023-03-12T02:42:52.787Z,0.77
2023-03-12T02:45:19.297Z,0.40
2023-03-12T02:47:45.721Z,0.40
2023-03-12T02:50:15.489Z,0.40
2023-03-12T02:52:41.881Z,0.70
2023-03-12T02:55:08.484Z,0.40
2023-03-12T02:57:37.645Z,0.43
2023-03-12T03:00:07.090Z,0.57
2023-03-12T03:02:33.571Z,0.45
2023-03-12T03:04:59.960Z,0.52
2023-03-12T03:07:26.390Z,0.47
2023-03-12T03:09:52.790Z,0.50
2023-03-12T03:12:19.334Z,0.57
2023-03-12T03:14:45.735Z,0.40
2023-03-12T03:17:12.124Z,0.40
2023-03-12T03:19:39.847Z,0.50
2023-03-12T03:22:06.799Z,0.68
2023-03-12T03:24:33.233Z,0.70
2023-03-12T03:26:59.648Z,0.60
2023-03-12T03:29:26.164Z,0.68
2023-03-12T03:31:52.608Z,0.20
2023-03-12T03:34:19.006Z,0.30
2023-03-12T03:36:45.413Z,0.60
2023-03-12T03:39:11.894Z,0.60
2023-03-12T03:41:38.472Z,0.45
2023-03-12T03:44:05.523Z,0.50
2023-03-12T03:46:32.040Z,0.55
2023-03-12T03:49:02.139Z,0.50
2023-03-12T03:51:28.539Z,0.52
2023-03-12T03:53:55.048Z,0.40
2023-03-12T03:56:21.494Z,0.43
2023-03-12T03:58:47.897Z,0.38
2023-03-12T04:01:14.758Z,0.73
2023-03-12T04:03:41.234Z,0.40
2023-03-12T04:06:09.329Z,0.63
2023-03-12T04:08:37.172Z,0.30
2023-03-12T04:11:11.166Z,0.50
2023-03-12T04:13:37.788Z,0.30
2023-03-12T04:16:04.733Z,0.50
2023-03-12T04:18:31.316Z,0.40
2023-03-12T04:20:57.721Z,0.55
2023-03-12T04:23:24.110Z,0.30
2023-03-12T04:25:50.602Z,0.60
2023-03-12T04:28:17.292Z,0.40
2023-03-12T04:30:43.699Z,0.80
2023-03-12T04:33:10.194Z,0.47
2023-03-12T04:35:36.676Z,0.45
2023-03-12T04:38:03.373Z,0.55
2023-03-12T04:40:29.893Z,0.75
2023-03-12T04:42:56.356Z,0.65
2023-03-12T04:45:22.821Z,0.45
2023-03-12T04:47:52.244Z,0.30
2023-03-12T04:50:18.728Z,0.70
2023-03-12T04:52:45.141Z,0.47
2023-03-12T04:55:11.695Z,0.35
2023-03-12T04:57:38.074Z,0.70
2023-03-12T05:00:10.132Z,0.57
2023-03-12T05:02:37.322Z,0.55
2023-03-12T05:05:03.931Z,0.57
2023-03-12T05:07:30.316Z,0.40
2023-03-12T05:09:56.726Z,0.60
2023-03-12T05:12:23.129Z,0.45
2023-03-12T05:14:49.603Z,0.80
2023-03-12T05:17:16.016Z,0.43
2023-03-12T05:19:42.420Z,0.50
2023-03-12T05:22:08.825Z,0.40
2023-03-12T05:24:35.782Z,0.50
2023-03-12T05:27:02.290Z,0.32
2023-03-12T05:29:29.595Z,0.38
2023-03-12T05:31:56.045Z,0.52
2023-03-12T05:34:22.485Z,0.40
2023-03-12T05:36:48.870Z,0.40
2023-03-12T05:39:15.339Z,0.52
2023-03-12T05:41:41.758Z,0.32
2023-03-12T05:44:10.683Z,0.60
2023-03-12T05:46:37.079Z,0.30
2023-03-12T05:49:03.536Z,0.38
2023-03-12T05:51:29.976Z,0.40
2023-03-12T05:53:56.915Z,0.35
2023-03-12T05:56:23.296Z,0.40
2023-03-12T05:58:50.125Z,0.40
2023-03-12T06:01:21.818Z,0.50
2023-03-12T06:03:48.353Z,0.40
2023-03-12T06:06:14.759Z,0.40
2023-03-12T06:08:41.480Z,0.30
2023-03-12T06:11:08.238Z,0.30
2023-03-12T06:13:34.970Z,0.30
2023-03-12T06:16:09.166Z,0.70
2023-03-12T06:18:36.005Z,0.50
2023-03-12T06:21:12.566Z,0.30
2023-03-12T06:23:39.410Z,0.68
2023-03-12T06:26:06.354Z,0.40
2023-03-12T06:28:33.125Z,0.45
2023-03-12T06:30:59.611Z,0.50
2023-03-12T06:33:40.114Z,0.40
2023-03-12T06:38:33.391Z,0.32
2023-03-12T06:41:04.013Z,0.30
2023-03-12T06:43:31.589Z,0.52
2023-03-12T06:45:59.032Z,0.43
2023-03-12T06:48:26.579Z,0.55
2023-03-12T06:50:53.045Z,0.47
2023-03-12T06:53:20.110Z,0.68
2023-03-12T06:55:46.847Z,1.13
2023-03-12T06:58:13.372Z,3.58
2023-03-12T07:00:39.816Z,3.70
2023-03-12T07:03:06.399Z,4.65
2023-03-12T07:05:33.177Z,4.20
2023-03-12T07:07:59.682Z,3.60
2023-03-12T07:10:29.361Z,3.97
2023-03-12T07:12:56.910Z,4.20
2023-03-12T07:15:23.686Z,4.05
2023-03-12T07:17:50.299Z,4.45
2023-03-12T07:20:16.896Z,3.17
2023-03-12T07:22:43.321Z,2.30
2023-03-12T07:25:10.289Z,2.83
2023-03-12T07:27:36.751Z,2.50
2023-03-12T07:30:03.820Z,2.55
2023-03-12T07:32:33.560Z,2.42
2023-03-12T07:35:00.481Z,1.70
2023-03-12T07:37:26.975Z,1.40
2023-03-12T07:39:54.709Z,1.25
2023-03-12T07:42:21.410Z,0.90
2023-03-12T07:44:48.549Z,1.60
2023-03-12T07:47:23.612Z,1.33
2023-03-12T07:49:51.245Z,1.40
2023-03-12T07:52:20.146Z,1.30
2023-03-12T07:54:46.796Z,1.67
2023-03-12T07:57:13.285Z,2.50
2023-03-12T07:59:39.863Z,2.45
2023-03-12T08:02:06.806Z,2.20
2023-03-12T08:04:33.461Z,1.50
2023-03-12T08:07:00.169Z,1.50
2023-03-12T08:09:26.744Z,1.83
2023-03-12T08:11:53.371Z,1.77
2023-03-12T08:14:19.922Z,1.70
2023-03-12T08:16:46.751Z,2.03
2023-03-12T08:19:13.250Z,1.58
2023-03-12T08:21:39.653Z,1.55
2023-03-12T08:24:09.182Z,2.10
2023-03-12T08:26:35.668Z,0.95
2023-03-12T08:29:02.191Z,1.45
2023-03-12T08:31:29.435Z,1.02
2023-03-12T08:33:55.884Z,1.02
2023-03-12T08:36:22.681Z,0.63
2023-03-12T08:38:49.276Z,0.80
2023-03-12T08:41:15.777Z,0.60
2023-03-12T08:43:42.350Z,0.50
2023-03-12T08:46:10.998Z,0.50
2023-03-12T08:48:38.767Z,0.50
2023-03-12T08:51:06.031Z,1.27
2023-03-12T08:53:33.358Z,0.40
2023-03-12T08:55:59.764Z,0.60
2023-03-12T08:58:26.553Z,0.40
2023-03-12T09:00:53.371Z,0.50
2023-03-12T09:03:21.568Z,0.60
2023-03-12T09:05:48.730Z,0.70
2023-03-12T09:08:15.366Z,0.50
2023-03-12T09:10:47.011Z,0.73
2023-03-12T09:13:13.409Z,0.63
2023-03-12T09:15:42.251Z,0.60
2023-03-12T09:18:08.649Z,0.45
2023-03-12T09:20:35.228Z,0.40
2023-03-12T09:23:01.645Z,0.55
2023-03-12T09:25:28.047Z,0.85
2023-03-12T09:27:54.581Z,0.75
2023-03-12T09:30:21.263Z,0.82
2023-03-12T09:32:48.115Z,0.47
2023-03-12T09:35:15.424Z,0.45
2023-03-12T09:37:41.875Z,0.52
2023-03-12T09:40:09.130Z,0.55
2023-03-12T09:42:35.500Z,0.60
2023-03-12T09:45:03.782Z,0.63
2023-03-12T09:47:31.858Z,0.40
2023-03-12T09:50:21.427Z,0.50
2023-03-12T09:52:47.811Z,0.50
2023-03-12T09:55:15.513Z,0.50
2023-03-12T09:57:43.072Z,1.02
2023-03-12T10:00:13.815Z,0.57
2023-03-12T10:02:46.353Z,0.55
2023-03-12T10:05:16.157Z,0.50
2023-03-12T10:11:04.725Z,0.57
2023-03-12T10:13:45.875Z,0.57
2023-03-12T10:16:44.651Z,1.23
2023-03-12T10:19:23.147Z,0.50
2023-03-12T10:22:05.412Z,0.70
2023-03-12T10:24:47.782Z,0.50
2023-03-12T10:27:15.885Z,0.73
2023-03-12T10:29:45.130Z,0.38
2023-03-12T10:32:11.614Z,0.70
2023-03-12T10:34:56.076Z,0.60
2023-03-12T10:37:30.212Z,0.47
2023-03-12T10:39:57.219Z,0.52
2023-03-12T10:42:24.839Z,0.70
2023-03-12T10:44:52.927Z,0.40
2023-03-12T10:47:29.405Z,0.60
2023-03-12T10:50:11.078Z,0.43
2023-03-12T10:52:37.632Z,0.30
2023-03-12T10:55:11.477Z,0.43
2023-03-12T10:57:41.979Z,1.15
2023-03-12T11:00:12.984Z,0.60
2023-03-12T11:05:20.746Z,0.52
2023-03-12T11:07:47.152Z,0.40
2023-03-12T11:10:18.750Z,0.50
2023-03-12T11:12:55.887Z,0.43
2023-03-12T11:15:23.783Z,1.05
2023-03-12T11:17:50.356Z,0.50
2023-03-12T11:20:27.443Z,0.60
2023-03-12T11:22:53.923Z,0.80
2023-03-12T11:25:22.788Z,0.60
2023-03-12T11:27:56.887Z,0.65
2023-03-12T11:30:35.292Z,0.63
2023-03-12T11:33:02.265Z,0.90
2023-03-12T11:35:52.159Z,2.20
2023-03-12T11:38:19.927Z,0.70
2023-03-12T11:41:15.669Z,0.60
2023-03-12T11:43:44.871Z,1.27
2023-03-12T11:46:30.191Z,0.60
2023-03-12T11:48:59.617Z,0.43
2023-03-12T11:51:40.578Z,0.40
2023-03-12T11:56:39.285Z,0.60
2023-03-12T11:59:24.529Z,0.70
2023-03-12T12:01:55.872Z,1.55
2023-03-12T12:04:43.258Z,0.85
2023-03-12T12:07:10.186Z,0.70
2023-03-12T12:09:52.125Z,0.75
2023-03-12T12:12:18.510Z,0.47
2023-03-12T12:14:54.924Z,0.60
2023-03-12T12:17:50.903Z,0.40
2023-03-12T12:20:23.495Z,0.52
2023-03-12T12:22:55.976Z,0.70
2023-03-12T12:25:30.194Z,0.50
2023-03-12T12:28:06.646Z,0.60
2023-03-12T12:30:42.283Z,0.40
2023-03-12T12:33:15.486Z,0.45
2023-03-12T12:35:43.506Z,0.50
2023-03-12T12:38:30.333Z,0.70
2023-03-12T12:41:08.989Z,0.60
2023-03-12T12:43:39.667Z,0.73
2023-03-12T12:46:14.824Z,0.75
2023-03-12T12:48:52.647Z,0.60
2023-03-12T12:51:20.656Z,0.60
2023-03-12T12:53:50.797Z,0.80
2023-03-12T12:56:26.370Z,0.60
2023-03-12T12:58:58.824Z,0.60
2023-03-12T13:01:27.734Z,0.47
2023-03-12T13:03:57.578Z,0.40
2023-03-12T13:06:50.155Z,0.43
2023-03-12T13:09:22.600Z,0.40
2023-03-12T13:11:50.427Z,0.60
2023-03-12T13:14:21.303Z,0.60
2023-03-12T13:19:13.987Z,0.57
2023-03-12T13:22:00.602Z,0.50
2023-03-12T13:24:32.088Z,0.60
2023-03-12T13:27:13.928Z,0.60
2023-03-12T13:29:41.422Z,0.50
2023-03-12T13:32:37.174Z,0.40
2023-03-12T13:35:15.910Z,0.40
2023-03-12T13:37:51.410Z,0.70
2023-03-12T13:40:30.007Z,0.70
2023-03-12T13:43:16.066Z,0.80
2023-03-12T13:46:21.160Z,0.40
2023-03-12T13:48:48.428Z,0.40
2023-03-12T13:51:19.742Z,0.43
2023-03-12T13:54:04.647Z,0.30
2023-03-12T13:56:34.465Z,1.00
2023-03-12T13:59:05.010Z,0.50
2023-03-12T14:01:41.050Z,0.25
2023-03-12T14:04:10.698Z,0.43
2023-03-12T14:06:49.134Z,0.47
2023-03-12T14:09:15.517Z,0.45
2023-03-12T14:11:45.075Z,0.50
2023-03-12T14:14:30.278Z,0.60
2023-03-12T14:16:58.094Z,0.40
2023-03-12T14:19:25.705Z,0.60
2023-03-12T14:21:53.048Z,0.40
2023-03-12T14:24:22.300Z,0.40
2023-03-12T14:26:48.871Z,0.60
2023-03-12T14:29:27.521Z,0.40
2023-03-12T14:31:56.660Z,0.50
2023-03-12T14:34:25.418Z,0.47
2023-03-12T14:37:05.852Z,0.80
2023-03-12T14:39:54.292Z,0.30
2023-03-12T14:42:27.690Z,0.50
2023-03-12T14:44:58.582Z,0.43
2023-03-12T14:49:51.384Z,0.52
2023-03-12T14:52:22.918Z,0.38
2023-03-12T14:55:00.137Z,0.70
2023-03-12T14:57:26.700Z,0.60
2023-03-12T14:59:57.445Z,0.50
2023-03-12T15:02:24.251Z,0.50
2023-03-12T15:04:55.475Z,0.40
2023-03-12T15:07:36.206Z,0.45
2023-03-12T15:10:05.246Z,0.60
2023-03-12T15:12:35.039Z,0.40
2023-03-12T15:15:03.337Z,0.90
2023-03-12T15:17:31.243Z,0.43
2023-03-12T15:19:58.523Z,0.47
2023-03-12T15:22:25.489Z,0.30
2023-03-12T15:24:51.917Z,0.60
2023-03-12T15:27:19.307Z,0.40
2023-03-12T15:29:45.707Z,0.50
2023-03-12T15:32:16.280Z,0.50
2023-03-12T15:34:43.356Z,0.77
2023-03-12T15:37:32.397Z,0.60
2023-03-12T15:40:00.344Z,0.50
2023-03-12T15:42:27.326Z,0.50
2023-03-12T15:44:56.660Z,0.50
2023-03-12T15:47:28.224Z,0.80
2023-03-12T15:49:57.008Z,0.57
2023-03-12T15:52:34.383Z,0.40
2023-03-12T15:55:21.531Z,0.40
2023-03-12T15:57:54.847Z,0.60
2023-03-12T16:00:23.809Z,0.50
2023-03-12T16:02:54.254Z,0.40
2023-03-12T16:05:21.799Z,0.43
2023-03-12T16:07:48.694Z,0.40
2023-03-12T16:10:16.791Z,0.40
2023-03-12T16:12:45.355Z,1.33
2023-03-12T16:15:15.971Z,1.35
2023-03-12T16:17:42.706Z,1.10
2023-03-12T16:20:13.607Z,1.10
2023-03-12T16:25:07.006Z,0.70
2023-03-12T16:27:39.079Z,0.70
2023-03-12T16:30:16.770Z,0.80
2023-03-12T16:32:43.315Z,0.80
2023-03-12T16:35:11.727Z,0.80
2023-03-12T16:37:38.161Z,0.70
2023-03-12T16:40:06.206Z,0.68
2023-03-12T16:42:35.610Z,0.85
2023-03-12T16:45:02.114Z,0.82
2023-03-12T16:47:28.588Z,1.00
2023-03-12T16:49:55.601Z,0.73
2023-03-12T16:52:23.194Z,2.35
2023-03-12T16:54:50.177Z,1.23
2023-03-12T16:57:28.005Z,1.20
2023-03-12T16:59:54.402Z,1.00
2023-03-12T17:02:21.432Z,1.40
2023-03-12T17:04:48.837Z,1.38
2023-03-12T17:07:15.430Z,2.10
2023-03-12T17:09:41.804Z,3.40
2023-03-12T17:12:19.640Z,3.72
2023-03-12T17:14:46.043Z,3.40
2023-03-12T17:17:15.643Z,3.22
2023-03-12T17:19:42.074Z,2.65
2023-03-12T17:22:08.624Z,1.77
2023-03-12T17:24:35.266Z,1.13
2023-03-12T17:27:01.674Z,2.22
2023-03-12T17:29:28.080Z,1.88
2023-03-12T17:31:54.495Z,2.00
2023-03-12T17:34:20.889Z,1.80
2023-03-12T17:36:47.297Z,1.73
2023-03-12T17:39:13.689Z,1.65
2023-03-12T17:41:40.103Z,2.05
2023-03-12T17:44:07.204Z,2.67
2023-03-12T17:46:33.655Z,3.60
2023-03-12T17:49:00.148Z,3.70
2023-03-12T17:51:26.600Z,3.25
2023-03-12T17:53:53.027Z,3.42
2023-03-12T17:56:19.632Z,3.60
2023-03-12T17:58:49.127Z,11.20
2023-03-12T18:01:16.191Z,7.65
2023-03-12T18:03:44.048Z,5.43
2023-03-12T18:06:10.946Z,2.72
2023-03-12T18:08:37.444Z,5.70
2023-03-12T18:11:03.900Z,6.75
2023-03-12T18:13:30.655Z,7.68
2023-03-12T18:16:00.031Z,5.25
2023-03-12T18:18:27.095Z,2.85
2023-03-12T18:20:53.825Z,5.15
2023-03-12T18:23:20.652Z,3.08
2023-03-12T18:25:47.507Z,3.67
2023-03-12T18:28:15.217Z,2.40
2023-03-12T18:30:41.629Z,2.63
2023-03-12T18:33:11.229Z,3.28
2023-03-12T18:35:37.679Z,3.08
2023-03-12T18:38:04.194Z,2.88
2023-03-12T18:40:32.836Z,5.43
2023-03-12T18:43:02.957Z,3.78
2023-03-12T18:45:31.176Z,4.90
2023-03-12T18:47:57.702Z,4.07
2023-03-12T18:50:24.554Z,3.33
2023-03-12T18:52:51.089Z,6.72
2023-03-12T18:55:17.703Z,3.28
2023-03-12T18:57:45.016Z,2.85
2023-03-12T19:00:15.942Z,2.38
2023-03-12T19:02:42.864Z,1.83
2023-03-12T19:05:10.982Z,2.45
2023-03-12T19:07:39.084Z,1.73
2023-03-12T19:10:06.237Z,2.33
2023-03-12T19:12:39.440Z,1.45
2023-03-12T19:15:15.614Z,9.02
2023-03-12T19:17:42.030Z,2.15
2023-03-12T19:20:09.556Z,2.08
2023-03-12T19:22:35.963Z,1.95
2023-03-12T19:25:02.364Z,1.58
2023-03-12T19:27:29.708Z,6.50
2023-03-12T19:29:56.196Z,1.85
2023-03-12T19:32:25.367Z,1.30
2023-03-12T19:34:54.126Z,2.22
2023-03-12T19:37:22.117Z,1.20
2023-03-12T19:39:48.565Z,1.58
2023-03-12T19:42:14.962Z,1.15
2023-03-12T19:44:42.250Z,1.10
2023-03-12T19:47:08.823Z,1.35
2023-03-12T19:49:35.714Z,2.08
2023-03-12T19:52:02.727Z,2.13
2023-03-12T19:54:29.386Z,1.73
2023-03-12T19:56:56.760Z,5.88
2023-03-12T19:59:25.489Z,2.20
2023-03-12T20:01:52.052Z,1.65
2023-03-12T20:04:18.661Z,1.70
2023-03-12T20:06:45.060Z,2.45
2023-03-12T20:09:11.660Z,1.33
2023-03-12T20:11:38.128Z,1.50
2023-03-12T20:14:05.157Z,2.75
2023-03-12T20:16:31.702Z,1.80
2023-03-12T20:18:58.136Z,1.92
2023-03-12T20:21:24.587Z,1.77
2023-03-12T20:23:51.054Z,1.30
2023-03-12T20:26:17.472Z,1.48
2023-03-12T20:28:43.961Z,2.22
2023-03-12T20:31:12.016Z,3.60
2023-03-12T20:33:38.556Z,3.08
2023-03-12T20:36:06.250Z,2.08
2023-03-12T20:38:32.713Z,1.60
2023-03-12T20:40:59.362Z,2.55
2023-03-12T20:43:25.784Z,1.50
2023-03-12T20:45:52.240Z,1.38
2023-03-12T20:48:18.660Z,1.63
2023-03-12T20:50:45.426Z,1.98
2023-03-12T20:53:11.866Z,1.92
2023-03-12T20:55:38.746Z,2.58
2023-03-12T20:58:05.248Z,2.10
2023-03-12T21:00:31.896Z,1.38
2023-03-12T21:02:58.527Z,1.58
2023-03-12T21:05:26.416Z,4.20
2023-03-12T21:07:58.241Z,3.55
2023-03-12T21:10:24.697Z,6.38
2023-03-12T21:12:51.086Z,4.05
2023-03-12T21:15:17.493Z,3.20
2023-03-12T21:17:43.968Z,1.65
2023-03-12T21:20:13.341Z,6.10
2023-03-12T21:22:40.182Z,2.38
2023-03-12T21:25:10.434Z,2.33
2023-03-12T21:27:49.890Z,1.50
2023-03-12T21:30:17.556Z,2.72
2023-03-12T21:32:44.000Z,1.05
2023-03-12T21:35:10.770Z,1.58
2023-03-12T21:37:37.432Z,3.88
2023-03-12T21:40:04.928Z,1.90
2023-03-12T21:42:33.060Z,1.10
2023-03-12T21:44:59.567Z,3.38
2023-03-12T21:47:26.025Z,1.60
2023-03-12T21:49:52.449Z,4.85
2023-03-12T21:52:21.661Z,7.68
2023-03-12T21:54:48.143Z,3.50
2023-03-12T21:57:14.561Z,1.40
2023-03-12T21:59:40.940Z,0.90
2023-03-12T22:02:07.660Z,1.35
2023-03-12T22:04:34.156Z,1.20
2023-03-12T22:07:00.703Z,1.05
2023-03-12T22:09:27.157Z,0.80
2023-03-12T22:11:53.561Z,0.90
2023-03-12T22:14:20.010Z,0.68
2023-03-12T22:16:46.528Z,1.00
2023-03-12T22:19:13.057Z,0.95
2023-03-12T22:21:39.548Z,0.60
2023-03-12T22:24:06.084Z,0.80
2023-03-12T22:26:32.558Z,0.70
2023-03-12T22:28:59.429Z,1.10
2023-03-12T22:31:26.875Z,0.88
2023-03-12T22:33:56.882Z,1.08
2023-03-12T22:36:23.435Z,0.70
2023-03-12T22:38:49.881Z,0.90
2023-03-12T22:41:16.327Z,0.90
2023-03-12T22:43:42.845Z,0.65
2023-03-12T22:46:09.414Z,0.90
2023-03-12T22:48:36.824Z,0.88
2023-03-12T22:51:05.476Z,0.60
2023-03-12T22:53:32.081Z,0.82
2023-03-12T22:55:59.624Z,1.10
2023-03-12T22:58:26.441Z,0.80
2023-03-12T23:01:00.133Z,1.02
2023-03-12T23:03:27.030Z,1.05
2023-03-12T23:05:53.433Z,0.85
2023-03-12T23:08:19.866Z,1.20
2023-03-12T23:10:53.506Z,0.65
2023-03-12T23:13:20.002Z,0.65
2023-03-12T23:15:46.428Z,0.98
2023-03-12T23:18:12.804Z,0.90
2023-03-12T23:20:39.239Z,0.90
2023-03-12T23:23:05.622Z,1.08
2023-03-12T23:25:32.040Z,1.05
2023-03-12T23:27:58.474Z,1.00
2023-03-12T23:30:24.881Z,1.20
2023-03-12T23:32:51.368Z,0.80
2023-03-12T23:35:17.907Z,0.90
2023-03-12T23:37:46.752Z,0.95
2023-03-12T23:40:13.365Z,0.73
2023-03-12T23:42:43.382Z,0.70
2023-03-12T23:45:11.270Z,0.82
2023-03-12T23:47:37.713Z,0.70
2023-03-12T23:50:04.760Z,0.73
2023-03-12T23:52:31.283Z,0.50
2023-03-12T23:54:57.684Z,0.85
2023-03-12T23:57:24.102Z,0.77
2023-03-12T23:59:52.296Z,0.80
